Terminal Aerodrome Forecast
Issued by NWS Cleveland, OH

Home | Current Version | Previous Version | Text Only | Print | Product List | Glossary On
Versions: 1 2 3 4 5 6 7 8 9 10 11 12 13 14 15 16 17 18
602
FTUS41 KCLE 261444 AAA
TAFTOL
TAF AMD
KTOL 261444Z 2615/2712 25012KT P6SM -RA BKN015 OVC025
      TEMPO 2617/2618 SCT015 SCT025 OVC080
     FM261800 27014G22KT P6SM SCT020 OVC080
     FM262200 25010KT P6SM SCT080=

USA.gov is the U.S. government's official web portal to all federal, state and local government web resources and services.